Terminal Aerodrome Forecast
Issued by NWS Jackson, MS

Home | Current Version | Previous Version | Text Only | Print | Product List | Glossary On
Versions: 1 2 3 4 5 6 7 8 9 10 11 12
000
FTUS44 KJAN 131100
TAFMEI
TAF
KMEI 131130Z 1312/1412 00000KT 5SM BR SKC
     FM131300 17004KT P6SM SKC
     FM131800 18004KT P6SM VCTS SCT050CB
     FM140100 20003KT P6SM SKC=

USA.gov is the U.S. government's official web portal to all federal, state and local government web resources and services.